sensor_id;sensor_type;location;lat;lon;timestamp;temperature;humidity
6462;DHT22;3264;42.862;25.098;2023-02-15T00:02:06;1.80;99.90
6462;DHT22;3264;42.862;25.098;2023-02-15T00:04:47;1.70;99.90
6462;DHT22;3264;42.862;25.098;2023-02-15T00:07:19;1.60;99.90
6462;DHT22;3264;42.862;25.098;2023-02-15T00:09:49;1.60;99.90
6462;DHT22;3264;42.862;25.098;2023-02-15T00:12:30;1.60;99.90
6462;DHT22;3264;42.862;25.098;2023-02-15T00:15:11;1.60;99.90
6462;DHT22;3264;42.862;25.098;2023-02-15T00:17:42;1.60;99.90
6462;DHT22;3264;42.862;25.098;2023-02-15T00:20:10;1.50;99.90
6462;DHT22;3264;42.862;25.098;2023-02-15T00:22:38;1.50;99.90
6462;DHT22;3264;42.862;25.098;2023-02-15T00:25:06;1.50;99.90
6462;DHT22;3264;42.862;25.098;2023-02-15T00:27:39;1.40;99.90
6462;DHT22;3264;42.862;25.098;2023-02-15T00:30:14;1.30;99.90
6462;DHT22;3264;42.862;25.098;2023-02-15T00:32:42;1.30;99.90
6462;DHT22;3264;42.862;25.098;2023-02-15T00:35:09;1.20;99.90
6462;DHT22;3264;42.862;25.098;2023-02-15T00:37:37;1.10;99.90
6462;DHT22;3264;42.862;25.098;2023-02-15T00:40:14;1.10;99.90
6462;DHT22;3264;42.862;25.098;2023-02-15T00:42:46;1.10;99.90
6462;DHT22;3264;42.862;25.098;2023-02-15T00:45:15;0.90;99.90
6462;DHT22;3264;42.862;25.098;2023-02-15T00:47:47;0.90;99.90
6462;DHT22;3264;42.862;25.098;2023-02-15T00:50:17;1.00;99.90
6462;DHT22;3264;42.862;25.098;2023-02-15T00:52:48;0.80;99.90
6462;DHT22;3264;42.862;25.098;2023-02-15T00:55:23;0.80;99.90
6462;DHT22;3264;42.862;25.098;2023-02-15T00:57:51;0.70;99.90
6462;DHT22;3264;42.862;25.098;2023-02-15T01:00:28;0.80;99.90
6462;DHT22;3264;42.862;25.098;2023-02-15T01:03:10;0.80;99.90
6462;DHT22;3264;42.862;25.098;2023-02-15T01:05:38;0.80;99.90
6462;DHT22;3264;42.862;25.098;2023-02-15T01:08:21;0.60;99.90
6462;DHT22;3264;42.862;25.098;2023-02-15T01:10:48;0.70;99.90
6462;DHT22;3264;42.862;25.098;2023-02-15T01:13:16;0.70;99.90
6462;DHT22;3264;42.862;25.098;2023-02-15T01:15:52;0.60;99.90
6462;DHT22;3264;42.862;25.098;2023-02-15T01:18:23;0.60;99.90
6462;DHT22;3264;42.862;25.098;2023-02-15T01:20:53;0.50;99.90
6462;DHT22;3264;42.862;25.098;2023-02-15T01:23:21;0.40;99.90
6462;DHT22;3264;42.862;25.098;2023-02-15T01:25:49;0.40;99.90
6462;DHT22;3264;42.862;25.098;2023-02-15T01:28:19;0.30;99.90
6462;DHT22;3264;42.862;25.098;2023-02-15T01:30:51;0.20;99.90
6462;DHT22;3264;42.862;25.098;2023-02-15T01:33:21;0.10;99.90
6462;DHT22;3264;42.862;25.098;2023-02-15T01:36:16;0.10;99.90
6462;DHT22;3264;42.862;25.098;2023-02-15T01:38:44;0.10;99.90
6462;DHT22;3264;42.862;25.098;2023-02-15T01:41:13;0.20;99.90
6462;DHT22;3264;42.862;25.098;2023-02-15T01:43:58;0.10;99.90
6462;DHT22;3264;42.862;25.098;2023-02-15T01:46:35;0.10;99.90
6462;DHT22;3264;42.862;25.098;2023-02-15T01:49:15;0.10;99.90
6462;DHT22;3264;42.862;25.098;2023-02-15T01:51:49;0.10;99.90
6462;DHT22;3264;42.862;25.098;2023-02-15T01:54:25;0.10;99.90
6462;DHT22;3264;42.862;25.098;2023-02-15T01:56:58;0.20;99.90
6462;DHT22;3264;42.862;25.098;2023-02-15T01:59:28;0.10;99.90
6462;DHT22;3264;42.862;25.098;2023-02-15T02:02:05;0.10;99.90
6462;DHT22;3264;42.862;25.098;2023-02-15T02:04:43;0.10;99.90
6462;DHT22;3264;42.862;25.098;2023-02-15T02:07:24;0.00;99.90
6462;DHT22;3264;42.862;25.098;2023-02-15T02:09:55;-0.10;99.90
6462;DHT22;3264;42.862;25.098;2023-02-15T02:12:24;-0.10;99.90
6462;DHT22;3264;42.862;25.098;2023-02-15T02:14:57;-0.10;99.90
6462;DHT22;3264;42.862;25.098;2023-02-15T02:17:34;0.00;99.90
6462;DHT22;3264;42.862;25.098;2023-02-15T02:20:26;0.00;99.90
6462;DHT22;3264;42.862;25.098;2023-02-15T02:26:18;0.10;99.90
6462;DHT22;3264;42.862;25.098;2023-02-15T02:35:12;-0.10;99.90
6462;DHT22;3264;42.862;25.098;2023-02-15T02:37:48;-0.10;99.90
6462;DHT22;3264;42.862;25.098;2023-02-15T02:40:27;-0.10;99.90
6462;DHT22;3264;42.862;25.098;2023-02-15T02:43:18;-0.10;99.90
6462;DHT22;3264;42.862;25.098;2023-02-15T02:45:52;-0.20;99.90
6462;DHT22;3264;42.862;25.098;2023-02-15T02:48:32;-0.20;99.90
6462;DHT22;3264;42.862;25.098;2023-02-15T02:51:03;-0.10;99.90
6462;DHT22;3264;42.862;25.098;2023-02-15T02:53:33;-0.20;99.90
6462;DHT22;3264;42.862;25.098;2023-02-15T02:56:15;-0.20;99.90
6462;DHT22;3264;42.862;25.098;2023-02-15T02:58:54;-0.20;99.90
6462;DHT22;3264;42.862;25.098;2023-02-15T03:01:27;-0.20;99.90
6462;DHT22;3264;42.862;25.098;2023-02-15T03:04:01;-0.30;99.90
6462;DHT22;3264;42.862;25.098;2023-02-15T03:06:48;-0.40;99.90
6462;DHT22;3264;42.862;25.098;2023-02-15T03:09:24;-0.40;99.90
6462;DHT22;3264;42.862;25.098;2023-02-15T03:12:13;-0.30;99.90
6462;DHT22;3264;42.862;25.098;2023-02-15T03:14:44;-0.30;99.90
6462;DHT22;3264;42.862;25.098;2023-02-15T03:17:13;-0.30;99.90
6462;DHT22;3264;42.862;25.098;2023-02-15T03:19:45;-0.40;99.90
6462;DHT22;3264;42.862;25.098;2023-02-15T03:22:20;-0.40;99.90
6462;DHT22;3264;42.862;25.098;2023-02-15T03:24:55;-0.40;99.90
6462;DHT22;3264;42.862;25.098;2023-02-15T03:27:25;-0.50;99.90
6462;DHT22;3264;42.862;25.098;2023-02-15T03:29:58;-0.40;99.90
6462;DHT22;3264;42.862;25.098;2023-02-15T03:32:34;-0.50;99.90
6462;DHT22;3264;42.862;25.098;2023-02-15T03:35:09;-0.40;99.90
6462;DHT22;3264;42.862;25.098;2023-02-15T03:37:43;-0.30;99.90
6462;DHT22;3264;42.862;25.098;2023-02-15T03:40:22;-0.30;99.90
6462;DHT22;3264;42.862;25.098;2023-02-15T03:43:16;-0.30;99.90
6462;DHT22;3264;42.862;25.098;2023-02-15T03:45:51;-0.40;99.90
6462;DHT22;3264;42.862;25.098;2023-02-15T03:48:30;-0.50;99.90
6462;DHT22;3264;42.862;25.098;2023-02-15T03:51:04;-0.50;99.90
6462;DHT22;3264;42.862;25.098;2023-02-15T03:53:56;-0.50;99.90
6462;DHT22;3264;42.862;25.098;2023-02-15T03:56:24;-0.60;99.90
6462;DHT22;3264;42.862;25.098;2023-02-15T03:58:52;-0.50;99.90
6462;DHT22;3264;42.862;25.098;2023-02-15T04:01:39;-0.50;99.90
6462;DHT22;3264;42.862;25.098;2023-02-15T04:04:28;-0.50;99.90
6462;DHT22;3264;42.862;25.098;2023-02-15T04:07:03;-0.60;99.90
6462;DHT22;3264;42.862;25.098;2023-02-15T04:09:36;-0.60;99.90
6462;DHT22;3264;42.862;25.098;2023-02-15T04:12:21;-0.60;99.90
6462;DHT22;3264;42.862;25.098;2023-02-15T04:14:50;-0.60;99.90
6462;DHT22;3264;42.862;25.098;2023-02-15T04:17:36;-0.60;99.90
6462;DHT22;3264;42.862;25.098;2023-02-15T04:20:05;-0.70;99.90
6462;DHT22;3264;42.862;25.098;2023-02-15T04:22:51;-0.80;99.90
6462;DHT22;3264;42.862;25.098;2023-02-15T04:25:38;-0.70;99.90
6462;DHT22;3264;42.862;25.098;2023-02-15T04:28:05;-0.70;99.90
6462;DHT22;3264;42.862;25.098;2023-02-15T04:30:34;-0.80;99.90
6462;DHT22;3264;42.862;25.098;2023-02-15T04:33:03;-0.70;99.90
6462;DHT22;3264;42.862;25.098;2023-02-15T04:35:31;-0.70;99.90
6462;DHT22;3264;42.862;25.098;2023-02-15T04:37:59;-0.70;99.90
6462;DHT22;3264;42.862;25.098;2023-02-15T04:40:28;-0.70;99.90
6462;DHT22;3264;42.862;25.098;2023-02-15T04:42:57;-0.70;99.90
6462;DHT22;3264;42.862;25.098;2023-02-15T04:45:25;-0.70;99.90
6462;DHT22;3264;42.862;25.098;2023-02-15T04:47:53;-0.80;99.90
6462;DHT22;3264;42.862;25.098;2023-02-15T04:50:22;-0.80;99.90
6462;DHT22;3264;42.862;25.098;2023-02-15T04:52:51;-0.80;99.90
6462;DHT22;3264;42.862;25.098;2023-02-15T04:55:19;-0.80;99.90
6462;DHT22;3264;42.862;25.098;2023-02-15T04:57:48;-0.70;99.90
6462;DHT22;3264;42.862;25.098;2023-02-15T05:00:18;-0.80;99.90
6462;DHT22;3264;42.862;25.098;2023-02-15T05:02:47;-0.80;99.90
6462;DHT22;3264;42.862;25.098;2023-02-15T05:05:15;-0.70;99.90
6462;DHT22;3264;42.862;25.098;2023-02-15T05:07:43;-0.50;99.90
6462;DHT22;3264;42.862;25.098;2023-02-15T05:10:10;-0.60;99.90
6462;DHT22;3264;42.862;25.098;2023-02-15T05:12:38;-0.50;99.90
6462;DHT22;3264;42.862;25.098;2023-02-15T05:15:07;-0.50;99.90
6462;DHT22;3264;42.862;25.098;2023-02-15T05:17:36;-0.50;99.90
6462;DHT22;3264;42.862;25.098;2023-02-15T05:20:05;-0.60;99.90
6462;DHT22;3264;42.862;25.098;2023-02-15T05:22:33;-0.80;99.90
6462;DHT22;3264;42.862;25.098;2023-02-15T05:28:20;-0.50;99.90
6462;DHT22;3264;42.862;25.098;2023-02-15T05:30:48;-0.60;99.90
6462;DHT22;3264;42.862;25.098;2023-02-15T05:33:20;-0.60;99.90
6462;DHT22;3264;42.862;25.098;2023-02-15T05:35:48;-0.70;99.90
6462;DHT22;3264;42.862;25.098;2023-02-15T05:38:17;-0.60;99.90
6462;DHT22;3264;42.862;25.098;2023-02-15T05:40:45;-0.60;99.90
6462;DHT22;3264;42.862;25.098;2023-02-15T05:43:13;-0.60;99.90
6462;DHT22;3264;42.862;25.098;2023-02-15T05:45:45;-0.60;99.90
6462;DHT22;3264;42.862;25.098;2023-02-15T05:48:13;-0.50;99.90
6462;DHT22;3264;42.862;25.098;2023-02-15T05:50:44;-0.50;99.90
6462;DHT22;3264;42.862;25.098;2023-02-15T05:53:13;-0.40;99.90
6462;DHT22;3264;42.862;25.098;2023-02-15T05:55:41;-0.40;99.90
6462;DHT22;3264;42.862;25.098;2023-02-15T05:58:09;-0.30;99.90
6462;DHT22;3264;42.862;25.098;2023-02-15T06:00:37;-0.20;99.90
6462;DHT22;3264;42.862;25.098;2023-02-15T06:03:05;-0.10;99.90
6462;DHT22;3264;42.862;25.098;2023-02-15T06:05:33;-0.20;99.90
6462;DHT22;3264;42.862;25.098;2023-02-15T06:08:02;-0.10;99.90
6462;DHT22;3264;42.862;25.098;2023-02-15T06:10:29;-0.10;99.90
6462;DHT22;3264;42.862;25.098;2023-02-15T06:12:58;0.00;99.90
6462;DHT22;3264;42.862;25.098;2023-02-15T06:15:26;0.00;99.90
6462;DHT22;3264;42.862;25.098;2023-02-15T06:17:53;0.00;99.90
6462;DHT22;3264;42.862;25.098;2023-02-15T06:20:21;0.10;99.90
6462;DHT22;3264;42.862;25.098;2023-02-15T06:22:49;0.30;99.90
6462;DHT22;3264;42.862;25.098;2023-02-15T06:25:19;0.30;99.90
6462;DHT22;3264;42.862;25.098;2023-02-15T06:27:46;0.40;99.90
6462;DHT22;3264;42.862;25.098;2023-02-15T06:30:15;0.30;99.90
6462;DHT22;3264;42.862;25.098;2023-02-15T06:32:43;0.40;99.90
6462;DHT22;3264;42.862;25.098;2023-02-15T06:35:12;0.40;99.90
6462;DHT22;3264;42.862;25.098;2023-02-15T06:37:41;0.60;99.90
6462;DHT22;3264;42.862;25.098;2023-02-15T06:40:09;1.00;99.90
6462;DHT22;3264;42.862;25.098;2023-02-15T06:42:41;1.30;99.90
6462;DHT22;3264;42.862;25.098;2023-02-15T06:45:10;1.90;99.90
6462;DHT22;3264;42.862;25.098;2023-02-15T06:47:39;1.80;99.90
6462;DHT22;3264;42.862;25.098;2023-02-15T06:50:08;2.00;99.90
6462;DHT22;3264;42.862;25.098;2023-02-15T06:52:36;2.40;99.90
6462;DHT22;3264;42.862;25.098;2023-02-15T06:55:05;2.40;99.90
6462;DHT22;3264;42.862;25.098;2023-02-15T06:57:34;2.50;99.90
6462;DHT22;3264;42.862;25.098;2023-02-15T07:00:06;2.90;99.90
6462;DHT22;3264;42.862;25.098;2023-02-15T07:02:34;2.90;99.90
6462;DHT22;3264;42.862;25.098;2023-02-15T07:05:04;3.20;99.90
6462;DHT22;3264;42.862;25.098;2023-02-15T07:07:32;3.40;99.90
6462;DHT22;3264;42.862;25.098;2023-02-15T07:10:00;3.80;99.90
6462;DHT22;3264;42.862;25.098;2023-02-15T07:12:28;4.10;99.90
6462;DHT22;3264;42.862;25.098;2023-02-15T07:15:10;3.90;99.90
6462;DHT22;3264;42.862;25.098;2023-02-15T07:17:39;4.30;99.90
6462;DHT22;3264;42.862;25.098;2023-02-15T07:20:12;4.20;98.50
6462;DHT22;3264;42.862;25.098;2023-02-15T07:22:40;4.30;99.30
6462;DHT22;3264;42.862;25.098;2023-02-15T07:25:10;4.40;99.20
6462;DHT22;3264;42.862;25.098;2023-02-15T07:27:39;4.70;98.70
6462;DHT22;3264;42.862;25.098;2023-02-15T07:30:10;4.40;97.50
6462;DHT22;3264;42.862;25.098;2023-02-15T07:32:41;5.00;97.50
6462;DHT22;3264;42.862;25.098;2023-02-15T07:35:24;5.50;96.50
6462;DHT22;3264;42.862;25.098;2023-02-15T07:37:51;6.00;95.50
6462;DHT22;3264;42.862;25.098;2023-02-15T07:40:20;6.70;94.30
6462;DHT22;3264;42.862;25.098;2023-02-15T07:42:52;6.90;92.70
6462;DHT22;3264;42.862;25.098;2023-02-15T07:45:23;7.20;91.80
6462;DHT22;3264;42.862;25.098;2023-02-15T07:47:51;6.80;91.20
6462;DHT22;3264;42.862;25.098;2023-02-15T07:50:19;7.00;91.30
6462;DHT22;3264;42.862;25.098;2023-02-15T07:52:47;6.70;92.70
6462;DHT22;3264;42.862;25.098;2023-02-15T07:55:15;7.20;90.40
6462;DHT22;3264;42.862;25.098;2023-02-15T07:57:45;6.70;87.30
6462;DHT22;3264;42.862;25.098;2023-02-15T08:00:14;7.80;90.30
6462;DHT22;3264;42.862;25.098;2023-02-15T08:02:47;7.60;84.20
6462;DHT22;3264;42.862;25.098;2023-02-15T08:05:37;7.10;82.70
6462;DHT22;3264;42.862;25.098;2023-02-15T08:08:05;8.80;84.40
6462;DHT22;3264;42.862;25.098;2023-02-15T08:10:34;8.90;81.20
6462;DHT22;3264;42.862;25.098;2023-02-15T08:13:22;8.60;80.10
6462;DHT22;3264;42.862;25.098;2023-02-15T08:15:50;9.20;77.90
6462;DHT22;3264;42.862;25.098;2023-02-15T08:18:20;9.90;77.50
6462;DHT22;3264;42.862;25.098;2023-02-15T08:20:49;9.00;73.90
6462;DHT22;3264;42.862;25.098;2023-02-15T08:23:17;8.40;74.70
6462;DHT22;3264;42.862;25.098;2023-02-15T08:25:45;8.20;72.50
6462;DHT22;3264;42.862;25.098;2023-02-15T08:28:13;8.10;71.10
6462;DHT22;3264;42.862;25.098;2023-02-15T08:30:42;10.00;67.20
6462;DHT22;3264;42.862;25.098;2023-02-15T08:33:09;12.00;63.30
6462;DHT22;3264;42.862;25.098;2023-02-15T08:35:39;10.70;58.50
6462;DHT22;3264;42.862;25.098;2023-02-15T08:38:07;9.80;61.30
6462;DHT22;3264;42.862;25.098;2023-02-15T08:40:36;10.80;60.50
6462;DHT22;3264;42.862;25.098;2023-02-15T08:43:05;11.20;60.00
6462;DHT22;3264;42.862;25.098;2023-02-15T08:45:34;10.50;59.10
6462;DHT22;3264;42.862;25.098;2023-02-15T08:48:03;12.10;56.10
6462;DHT22;3264;42.862;25.098;2023-02-15T08:50:32;11.50;56.60
6462;DHT22;3264;42.862;25.098;2023-02-15T08:53:01;12.50;55.70
6462;DHT22;3264;42.862;25.098;2023-02-15T08:55:30;10.90;52.00
6462;DHT22;3264;42.862;25.098;2023-02-15T08:57:59;10.70;53.60
6462;DHT22;3264;42.862;25.098;2023-02-15T09:00:28;11.60;55.00
6462;DHT22;3264;42.862;25.098;2023-02-15T09:02:57;11.10;55.60
6462;DHT22;3264;42.862;25.098;2023-02-15T09:05:25;11.00;55.40
6462;DHT22;3264;42.862;25.098;2023-02-15T09:07:53;10.70;55.40
6462;DHT22;3264;42.862;25.098;2023-02-15T09:10:22;11.00;54.80
6462;DHT22;3264;42.862;25.098;2023-02-15T09:12:50;12.00;54.50
6462;DHT22;3264;42.862;25.098;2023-02-15T09:15:19;11.90;54.00
6462;DHT22;3264;42.862;25.098;2023-02-15T09:17:47;11.10;54.90
6462;DHT22;3264;42.862;25.098;2023-02-15T09:20:14;12.70;54.50
6462;DHT22;3264;42.862;25.098;2023-02-15T09:22:43;11.80;53.30
6462;DHT22;3264;42.862;25.098;2023-02-15T09:25:11;13.00;53.50
6462;DHT22;3264;42.862;25.098;2023-02-15T09:27:40;12.10;52.50
6462;DHT22;3264;42.862;25.098;2023-02-15T09:30:11;10.00;53.40
6462;DHT22;3264;42.862;25.098;2023-02-15T09:32:41;11.80;55.80
6462;DHT22;3264;42.862;25.098;2023-02-15T09:35:09;12.40;53.30
6462;DHT22;3264;42.862;25.098;2023-02-15T09:37:37;11.80;52.10
6462;DHT22;3264;42.862;25.098;2023-02-15T09:40:05;12.30;53.60
6462;DHT22;3264;42.862;25.098;2023-02-15T09:45:46;13.90;51.80
6462;DHT22;3264;42.862;25.098;2023-02-15T09:48:38;12.60;50.20
6462;DHT22;3264;42.862;25.098;2023-02-15T09:51:29;12.30;50.20
6462;DHT22;3264;42.862;25.098;2023-02-15T09:54:09;11.70;52.30
6462;DHT22;3264;42.862;25.098;2023-02-15T09:56:47;11.40;52.30
6462;DHT22;3264;42.862;25.098;2023-02-15T09:59:22;11.40;53.10
6462;DHT22;3264;42.862;25.098;2023-02-15T10:01:58;10.70;52.70
6462;DHT22;3264;42.862;25.098;2023-02-15T10:04:47;10.80;53.30
6462;DHT22;3264;42.862;25.098;2023-02-15T10:07:29;11.30;51.50
6462;DHT22;3264;42.862;25.098;2023-02-15T10:10:17;12.80;50.20
6462;DHT22;3264;42.862;25.098;2023-02-15T10:13:02;11.30;50.00
6462;DHT22;3264;42.862;25.098;2023-02-15T10:15:50;11.70;50.90
6462;DHT22;3264;42.862;25.098;2023-02-15T10:18:34;13.50;50.00
6462;DHT22;3264;42.862;25.098;2023-02-15T10:21:10;10.90;48.10
6462;DHT22;3264;42.862;25.098;2023-02-15T10:23:49;13.60;52.50
6462;DHT22;3264;42.862;25.098;2023-02-15T10:26:21;12.80;50.00
6462;DHT22;3264;42.862;25.098;2023-02-15T10:28:52;13.30;50.70
6462;DHT22;3264;42.862;25.098;2023-02-15T10:31:24;12.20;48.70
6462;DHT22;3264;42.862;25.098;2023-02-15T10:34:08;14.50;50.60
6462;DHT22;3264;42.862;25.098;2023-02-15T10:36:53;16.50;48.10
6462;DHT22;3264;42.862;25.098;2023-02-15T10:39:28;15.50;47.70
6462;DHT22;3264;42.862;25.098;2023-02-15T10:42:05;14.90;45.40
6462;DHT22;3264;42.862;25.098;2023-02-15T10:44:51;15.50;47.60
6462;DHT22;3264;42.862;25.098;2023-02-15T10:50:40;13.20;48.50
6462;DHT22;3264;42.862;25.098;2023-02-15T10:56:08;12.50;48.60
6462;DHT22;3264;42.862;25.098;2023-02-15T10:58:53;13.50;51.30
6462;DHT22;3264;42.862;25.098;2023-02-15T11:01:29;12.80;50.90
6462;DHT22;3264;42.862;25.098;2023-02-15T11:04:20;13.40;51.80
6462;DHT22;3264;42.862;25.098;2023-02-15T11:07:05;13.60;52.10
6462;DHT22;3264;42.862;25.098;2023-02-15T11:09:42;13.30;52.10
6462;DHT22;3264;42.862;25.098;2023-02-15T11:12:15;12.40;50.60
6462;DHT22;3264;42.862;25.098;2023-02-15T11:14:46;13.40;52.90
6462;DHT22;3264;42.862;25.098;2023-02-15T11:17:23;13.40;51.20
6462;DHT22;3264;42.862;25.098;2023-02-15T11:19:59;12.80;53.00
6462;DHT22;3264;42.862;25.098;2023-02-15T11:22:34;12.70;52.60
6462;DHT22;3264;42.862;25.098;2023-02-15T11:25:15;12.60;51.40
6462;DHT22;3264;42.862;25.098;2023-02-15T11:27:47;12.40;53.10
6462;DHT22;3264;42.862;25.098;2023-02-15T11:30:20;12.40;52.90
6462;DHT22;3264;42.862;25.098;2023-02-15T11:32:51;12.30;54.30
6462;DHT22;3264;42.862;25.098;2023-02-15T11:35:26;12.00;54.50
6462;DHT22;3264;42.862;25.098;2023-02-15T11:38:05;11.80;53.40
6462;DHT22;3264;42.862;25.098;2023-02-15T11:40:40;12.50;55.10
6462;DHT22;3264;42.862;25.098;2023-02-15T11:43:15;12.90;54.10
6462;DHT22;3264;42.862;25.098;2023-02-15T11:45:45;12.60;52.40
6462;DHT22;3264;42.862;25.098;2023-02-15T11:48:15;11.50;52.50
6462;DHT22;3264;42.862;25.098;2023-02-15T11:50:44;12.90;54.60
6462;DHT22;3264;42.862;25.098;2023-02-15T11:53:15;12.80;53.50
6462;DHT22;3264;42.862;25.098;2023-02-15T11:55:45;12.40;53.90
6462;DHT22;3264;42.862;25.098;2023-02-15T11:58:21;12.40;54.20
6462;DHT22;3264;42.862;25.098;2023-02-15T12:00:54;13.50;54.80
6462;DHT22;3264;42.862;25.098;2023-02-15T12:03:28;13.50;53.40
6462;DHT22;3264;42.862;25.098;2023-02-15T12:06:01;13.50;52.60
6462;DHT22;3264;42.862;25.098;2023-02-15T12:08:37;12.30;51.30
6462;DHT22;3264;42.862;25.098;2023-02-15T12:11:08;12.40;53.00
6462;DHT22;3264;42.862;25.098;2023-02-15T12:13:55;12.50;54.30
6462;DHT22;3264;42.862;25.098;2023-02-15T12:16:25;12.70;53.40
6462;DHT22;3264;42.862;25.098;2023-02-15T12:18:55;12.40;52.30
6462;DHT22;3264;42.862;25.098;2023-02-15T12:21:30;12.40;53.40
6462;DHT22;3264;42.862;25.098;2023-02-15T12:24:03;11.80;52.60
6462;DHT22;3264;42.862;25.098;2023-02-15T12:26:38;11.70;54.00
6462;DHT22;3264;42.862;25.098;2023-02-15T12:29:12;12.20;54.50
6462;DHT22;3264;42.862;25.098;2023-02-15T12:31:44;12.30;54.60
6462;DHT22;3264;42.862;25.098;2023-02-15T12:34:16;12.50;54.30
6462;DHT22;3264;42.862;25.098;2023-02-15T12:36:48;13.00;52.60
6462;DHT22;3264;42.862;25.098;2023-02-15T12:39:23;13.00;53.40
6462;DHT22;3264;42.862;25.098;2023-02-15T12:42:00;12.00;52.70
6462;DHT22;3264;42.862;25.098;2023-02-15T12:44:32;12.40;53.60
6462;DHT22;3264;42.862;25.098;2023-02-15T12:47:03;12.60;54.00
6462;DHT22;3264;42.862;25.098;2023-02-15T12:49:32;12.60;54.50
6462;DHT22;3264;42.862;25.098;2023-02-15T12:52:03;12.10;54.70
6462;DHT22;3264;42.862;25.098;2023-02-15T12:54:37;12.10;54.90
6462;DHT22;3264;42.862;25.098;2023-02-15T12:57:22;12.10;53.40
6462;DHT22;3264;42.862;25.098;2023-02-15T12:59:53;12.20;53.30
6462;DHT22;3264;42.862;25.098;2023-02-15T13:02:24;11.70;53.30
6462;DHT22;3264;42.862;25.098;2023-02-15T13:04:55;11.80;52.60
6462;DHT22;3264;42.862;25.098;2023-02-15T13:07:29;12.50;53.60
6462;DHT22;3264;42.862;25.098;2023-02-15T13:10:01;12.60;53.00
6462;DHT22;3264;42.862;25.098;2023-02-15T13:12:30;12.60;54.30
6462;DHT22;3264;42.862;25.098;2023-02-15T13:15:26;12.10;52.60
6462;DHT22;3264;42.862;25.098;2023-02-15T13:17:56;11.90;52.00
6462;DHT22;3264;42.862;25.098;2023-02-15T13:20:27;12.80;53.50
6462;DHT22;3264;42.862;25.098;2023-02-15T13:22:58;11.90;50.80
6462;DHT22;3264;42.862;25.098;2023-02-15T13:25:31;11.80;52.60
6462;DHT22;3264;42.862;25.098;2023-02-15T13:28:02;12.10;53.10
6462;DHT22;3264;42.862;25.098;2023-02-15T13:30:32;12.10;53.10
6462;DHT22;3264;42.862;25.098;2023-02-15T13:33:03;12.20;52.80
6462;DHT22;3264;42.862;25.098;2023-02-15T13:35:41;12.20;51.80
6462;DHT22;3264;42.862;25.098;2023-02-15T13:41:09;12.00;52.00
6462;DHT22;3264;42.862;25.098;2023-02-15T13:43:49;11.70;52.60
6462;DHT22;3264;42.862;25.098;2023-02-15T13:46:35;11.70;54.10
6462;DHT22;3264;42.862;25.098;2023-02-15T13:49:14;11.30;52.50
6462;DHT22;3264;42.862;25.098;2023-02-15T13:51:50;11.20;53.90
6462;DHT22;3264;42.862;25.098;2023-02-15T13:54:30;11.50;53.60
6462;DHT22;3264;42.862;25.098;2023-02-15T13:57:27;11.80;53.30
6462;DHT22;3264;42.862;25.098;2023-02-15T14:00:10;11.20;52.00
6462;DHT22;3264;42.862;25.098;2023-02-15T14:08:57;11.00;58.20
6462;DHT22;3264;42.862;25.098;2023-02-15T14:11:37;11.10;56.30
6462;DHT22;3264;42.862;25.098;2023-02-15T14:14:25;11.20;56.80
6462;DHT22;3264;42.862;25.098;2023-02-15T14:17:01;10.80;55.80
6462;DHT22;3264;42.862;25.098;2023-02-15T14:19:35;10.80;58.00
6462;DHT22;3264;42.862;25.098;2023-02-15T14:22:13;10.70;57.80
6462;DHT22;3264;42.862;25.098;2023-02-15T14:24:54;10.70;58.50
6462;DHT22;3264;42.862;25.098;2023-02-15T14:27:33;10.90;58.90
6462;DHT22;3264;42.862;25.098;2023-02-15T14:30:15;11.00;58.90
6462;DHT22;3264;42.862;25.098;2023-02-15T14:32:49;11.00;58.10
6462;DHT22;3264;42.862;25.098;2023-02-15T14:35:20;10.90;57.90
6462;DHT22;3264;42.862;25.098;2023-02-15T14:37:52;10.20;58.50
6462;DHT22;3264;42.862;25.098;2023-02-15T14:40:32;10.10;60.10
6462;DHT22;3264;42.862;25.098;2023-02-15T14:43:27;10.10;60.40
6462;DHT22;3264;42.862;25.098;2023-02-15T14:46:09;10.10;59.60
6462;DHT22;3264;42.862;25.098;2023-02-15T14:48:42;10.10;61.20
6462;DHT22;3264;42.862;25.098;2023-02-15T14:54:57;10.20;60.10
6462;DHT22;3264;42.862;25.098;2023-02-15T14:57:26;10.10;60.30
6462;DHT22;3264;42.862;25.098;2023-02-15T14:59:58;10.10;59.80
6462;DHT22;3264;42.862;25.098;2023-02-15T15:02:41;9.90;62.80
6462;DHT22;3264;42.862;25.098;2023-02-15T15:05:14;9.70;61.90
6462;DHT22;3264;42.862;25.098;2023-02-15T15:07:47;9.40;64.60
6462;DHT22;3264;42.862;25.098;2023-02-15T15:10:40;9.30;65.30
6462;DHT22;3264;42.862;25.098;2023-02-15T15:13:39;9.30;64.40
6462;DHT22;3264;42.862;25.098;2023-02-15T15:19:11;8.90;64.60
6462;DHT22;3264;42.862;25.098;2023-02-15T15:21:54;8.70;67.60
6462;DHT22;3264;42.862;25.098;2023-02-15T15:24:48;8.60;69.80
6462;DHT22;3264;42.862;25.098;2023-02-15T15:27:39;8.20;69.80
6462;DHT22;3264;42.862;25.098;2023-02-15T15:42:57;7.00;88.10
6462;DHT22;3264;42.862;25.098;2023-02-15T15:45:49;6.80;89.90
6462;DHT22;3264;42.862;25.098;2023-02-15T15:48:32;6.60;90.70
6462;DHT22;3264;42.862;25.098;2023-02-15T15:51:06;6.30;91.40
6462;DHT22;3264;42.862;25.098;2023-02-15T15:53:38;6.20;93.50
6462;DHT22;3264;42.862;25.098;2023-02-15T15:56:13;6.20;91.40
6462;DHT22;3264;42.862;25.098;2023-02-15T15:58:50;5.80;90.60
6462;DHT22;3264;42.862;25.098;2023-02-15T16:01:25;5.70;92.50
6462;DHT22;3264;42.862;25.098;2023-02-15T16:03:55;5.60;92.50
6462;DHT22;3264;42.862;25.098;2023-02-15T16:06:32;5.40;92.90
6462;DHT22;3264;42.862;25.098;2023-02-15T16:09:15;5.10;94.60
6462;DHT22;3264;42.862;25.098;2023-02-15T16:11:47;5.00;95.60
6462;DHT22;3264;42.862;25.098;2023-02-15T16:14:25;4.90;95.00
6462;DHT22;3264;42.862;25.098;2023-02-15T16:16:56;4.70;98.60
6462;DHT22;3264;42.862;25.098;2023-02-15T16:19:29;4.60;99.60
6462;DHT22;3264;42.862;25.098;2023-02-15T16:22:00;4.60;98.90
6462;DHT22;3264;42.862;25.098;2023-02-15T16:24:43;4.70;98.80
6462;DHT22;3264;42.862;25.098;2023-02-15T16:30:26;4.30;99.90
6462;DHT22;3264;42.862;25.098;2023-02-15T16:33:03;4.30;98.50
6462;DHT22;3264;42.862;25.098;2023-02-15T16:35:31;4.20;98.80
6462;DHT22;3264;42.862;25.098;2023-02-15T16:37:59;4.20;99.90
6462;DHT22;3264;42.862;25.098;2023-02-15T16:40:43;4.10;99.90
6462;DHT22;3264;42.862;25.098;2023-02-15T16:43:20;4.10;99.20
6462;DHT22;3264;42.862;25.098;2023-02-15T16:45:58;3.90;99.90
6462;DHT22;3264;42.862;25.098;2023-02-15T16:48:52;3.90;99.90
6462;DHT22;3264;42.862;25.098;2023-02-15T16:51:25;3.80;99.90
6462;DHT22;3264;42.862;25.098;2023-02-15T16:53:54;3.80;99.90
6462;DHT22;3264;42.862;25.098;2023-02-15T16:56:23;3.70;99.90
6462;DHT22;3264;42.862;25.098;2023-02-15T16:58:54;3.60;99.90
6462;DHT22;3264;42.862;25.098;2023-02-15T17:01:27;3.60;99.90
6462;DHT22;3264;42.862;25.098;2023-02-15T17:04:13;3.60;99.90
6462;DHT22;3264;42.862;25.098;2023-02-15T17:06:41;3.60;99.90
6462;DHT22;3264;42.862;25.098;2023-02-15T17:09:26;3.50;99.90
6462;DHT22;3264;42.862;25.098;2023-02-15T17:11:54;3.40;99.90
6462;DHT22;3264;42.862;25.098;2023-02-15T17:14:26;3.30;99.90
6462;DHT22;3264;42.862;25.098;2023-02-15T17:17:00;3.30;99.90
6462;DHT22;3264;42.862;25.098;2023-02-15T17:19:31;3.20;99.90
6462;DHT22;3264;42.862;25.098;2023-02-15T17:22:02;3.10;99.90
6462;DHT22;3264;42.862;25.098;2023-02-15T17:24:36;3.00;99.90
6462;DHT22;3264;42.862;25.098;2023-02-15T17:27:11;3.00;99.90
6462;DHT22;3264;42.862;25.098;2023-02-15T17:29:44;2.90;99.90